Terminal Aerodrome Forecast
Issued by NWS

Home | Current Version | Previous Version | Text Only | Print | Product List | Glossary Off
Versions: 1 2 3 4 5 6 7 8 9 10 11 12 13 14 15 16

810
FTUS43 KABR 250242 AAA
TAFPIR
TAF AMD
KPIR 250242Z 2503/2524 29017G25KT P6SM SKC
     FM250700 27023G33KT P6SM OVC035
     FM250900 29025G36KT P6SM OVC025
     FM251400 30026G36KT P6SM SCT060=

USA.gov is the U.S. government's official web portal to all federal, state and local government web resources and services.